createdAt,value
2017-12-01T00:00:07.555Z,5.50
2017-12-01T00:02:33.744Z,5.50
2017-12-01T00:04:59.921Z,5.50
2017-12-01T00:07:26.888Z,5.40
2017-12-01T00:09:53.068Z,5.40
2017-12-01T00:12:19.258Z,5.40
2017-12-01T00:14:45.452Z,5.40
2017-12-01T00:17:11.639Z,5.30
2017-12-01T00:19:37.798Z,5.30
2017-12-01T00:22:03.996Z,5.30
2017-12-01T00:24:30.191Z,5.30
2017-12-01T00:26:56.349Z,5.30
2017-12-01T00:29:23.308Z,5.30
2017-12-01T00:31:49.465Z,5.30
2017-12-01T00:34:15.617Z,5.30
2017-12-01T00:36:41.811Z,5.30
2017-12-01T00:39:14.995Z,5.20
2017-12-01T00:41:41.448Z,5.20
2017-12-01T00:44:07.841Z,5.20
2017-12-01T00:46:34.046Z,5.20
2017-12-01T00:49:00.273Z,5.20
2017-12-01T00:51:26.453Z,5.20
2017-12-01T00:53:53.369Z,5.20
2017-12-01T00:56:19.561Z,5.20
2017-12-01T00:58:46.481Z,5.20
2017-12-01T01:01:12.661Z,5.20
2017-12-01T01:03:38.864Z,5.20
2017-12-01T01:06:05.794Z,5.20
2017-12-01T01:08:32.012Z,5.20
2017-12-01T01:10:58.236Z,5.20
2017-12-01T01:13:24.433Z,5.20
2017-12-01T01:15:50.601Z,5.20
2017-12-01T01:18:16.813Z,5.20
2017-12-01T01:20:43.001Z,5.20
2017-12-01T01:23:09.905Z,5.10
2017-12-01T01:25:36.137Z,5.10
2017-12-01T01:28:02.333Z,5.10
2017-12-01T01:30:29.318Z,5.10
2017-12-01T01:32:55.652Z,5.10
2017-12-01T01:35:21.839Z,5.10
2017-12-01T01:37:48.020Z,5.10
2017-12-01T01:40:14.209Z,5.20
2017-12-01T01:42:42.840Z,5.20
2017-12-01T01:45:09.214Z,5.10
2017-12-01T01:47:35.416Z,5.20
2017-12-01T01:50:01.580Z,5.10
2017-12-01T01:52:27.888Z,5.10
2017-12-01T01:54:54.088Z,5.00
2017-12-01T01:57:20.979Z,5.00
2017-12-01T01:59:47.148Z,5.00
2017-12-01T02:02:13.337Z,5.00
2017-12-01T02:04:39.497Z,5.00
2017-12-01T02:07:07.144Z,5.00
2017-12-01T02:09:33.333Z,5.00
2017-12-01T02:12:00.235Z,4.90
2017-12-01T02:14:26.399Z,4.90
2017-12-01T02:16:52.587Z,4.90
2017-12-01T02:19:18.759Z,4.90
2017-12-01T02:21:44.957Z,4.90
2017-12-01T02:24:11.137Z,4.90
2017-12-01T02:26:38.047Z,4.90
2017-12-01T02:29:04.210Z,4.90
2017-12-01T02:31:30.392Z,4.90
2017-12-01T02:33:56.540Z,4.90
2017-12-01T02:36:22.717Z,4.80
2017-12-01T02:38:48.905Z,4.80
2017-12-01T02:41:15.109Z,4.90
2017-12-01T02:43:43.004Z,4.80
2017-12-01T02:46:09.414Z,4.80
2017-12-01T02:48:35.596Z,4.80
2017-12-01T02:51:01.777Z,4.80
2017-12-01T02:53:28.697Z,4.90
2017-12-01T02:55:54.858Z,4.90
2017-12-01T02:58:21.064Z,4.90
2017-12-01T03:00:47.264Z,5.00
2017-12-01T03:03:13.416Z,5.00
2017-12-01T03:05:39.651Z,5.00
2017-12-01T03:08:05.872Z,5.10
2017-12-01T03:10:32.073Z,5.10
2017-12-01T03:12:58.256Z,5.10
2017-12-01T03:15:24.647Z,5.10
2017-12-01T03:17:50.794Z,5.20
2017-12-01T03:20:16.956Z,5.20
2017-12-01T03:22:43.144Z,5.20
2017-12-01T03:25:10.051Z,5.20
2017-12-01T03:27:36.224Z,5.20
2017-12-01T03:30:03.177Z,5.30
2017-12-01T03:32:30.064Z,5.30
2017-12-01T03:34:56.232Z,5.30
2017-12-01T03:37:22.423Z,5.30
2017-12-01T03:39:48.596Z,5.30
2017-12-01T03:42:14.782Z,5.30
2017-12-01T03:44:41.861Z,5.30
2017-12-01T03:47:09.026Z,5.30
2017-12-01T03:49:35.182Z,5.30
2017-12-01T03:52:01.374Z,5.20
2017-12-01T03:54:27.537Z,5.20
2017-12-01T03:56:53.686Z,5.20
2017-12-01T03:59:19.861Z,5.20
2017-12-01T04:01:46.000Z,5.20
2017-12-01T04:04:12.152Z,5.10
2017-12-01T04:06:38.341Z,5.10
2017-12-01T04:09:05.230Z,5.10
2017-12-01T04:11:31.396Z,5.10
2017-12-01T04:13:58.332Z,5.10
2017-12-01T04:16:24.502Z,5.10
2017-12-01T04:18:51.396Z,5.10
2017-12-01T04:21:17.570Z,5.10
2017-12-01T04:23:44.467Z,5.00
2017-12-01T04:26:10.649Z,5.10
2017-12-01T04:28:37.577Z,5.10
2017-12-01T04:31:03.757Z,5.10
2017-12-01T04:33:29.916Z,5.10
2017-12-01T04:35:56.118Z,5.10
2017-12-01T04:38:23.027Z,5.10
2017-12-01T04:40:49.163Z,5.10
2017-12-01T04:43:15.351Z,5.00
2017-12-01T04:45:43.197Z,5.10
2017-12-01T04:48:12.369Z,5.10
2017-12-01T04:50:38.549Z,5.00
2017-12-01T04:53:04.701Z,5.00
2017-12-01T04:55:30.860Z,5.00
2017-12-01T04:57:57.063Z,4.90
2017-12-01T05:00:23.228Z,4.90
2017-12-01T05:02:49.389Z,4.90
2017-12-01T05:05:15.573Z,4.90
2017-12-01T05:07:41.716Z,4.90
2017-12-01T05:10:07.865Z,4.90
2017-12-01T05:12:34.040Z,4.90
2017-12-01T05:15:00.920Z,4.90
2017-12-01T05:17:27.169Z,5.00
2017-12-01T05:19:53.407Z,4.90
2017-12-01T05:22:19.539Z,5.00
2017-12-01T05:24:45.685Z,5.00
2017-12-01T05:27:11.861Z,5.00
2017-12-01T05:29:38.092Z,5.00
2017-12-01T05:32:04.294Z,5.00
2017-12-01T05:34:30.499Z,5.00
2017-12-01T05:36:56.664Z,5.10
2017-12-01T05:39:22.885Z,5.10
2017-12-01T05:41:49.060Z,5.10
2017-12-01T05:44:15.974Z,5.10
2017-12-01T05:46:42.317Z,5.10
2017-12-01T05:49:09.514Z,5.10
2017-12-01T05:51:35.734Z,5.20
2017-12-01T05:54:03.636Z,5.20
2017-12-01T05:56:29.813Z,5.20
2017-12-01T05:58:56.888Z,5.20
2017-12-01T06:01:23.169Z,5.20
2017-12-01T06:03:49.433Z,5.20
2017-12-01T06:06:15.593Z,5.20
2017-12-01T06:08:42.513Z,5.20
2017-12-01T06:11:09.489Z,5.20
2017-12-01T06:13:36.408Z,5.10
2017-12-01T06:16:02.576Z,5.00
2017-12-01T06:18:29.488Z,5.20
2017-12-01T06:20:55.654Z,5.20
2017-12-01T06:23:22.552Z,5.20
2017-12-01T06:25:48.722Z,5.20
2017-12-01T06:28:14.922Z,5.20
2017-12-01T06:30:41.076Z,5.20
2017-12-01T06:33:07.389Z,5.20
2017-12-01T06:35:33.593Z,5.10
2017-12-01T06:37:59.768Z,5.10
2017-12-01T06:40:26.001Z,5.10
2017-12-01T06:42:52.189Z,5.10
2017-12-01T06:45:19.140Z,5.10
2017-12-01T06:47:47.040Z,5.10
2017-12-01T06:50:13.397Z,5.10
2017-12-01T06:52:39.578Z,5.20
2017-12-01T06:55:06.872Z,5.10
2017-12-01T06:57:33.166Z,5.10
2017-12-01T06:59:59.401Z,5.10
2017-12-01T07:02:25.569Z,5.10
2017-12-01T07:04:51.708Z,5.10
2017-12-01T07:07:17.876Z,5.10
2017-12-01T07:09:44.068Z,5.10
2017-12-01T07:12:10.223Z,5.10
2017-12-01T07:14:36.368Z,5.10
2017-12-01T07:17:02.571Z,5.10
2017-12-01T07:19:28.748Z,5.10
2017-12-01T07:21:54.908Z,5.10
2017-12-01T07:24:21.109Z,5.10
2017-12-01T07:26:59.569Z,5.10
2017-12-01T07:29:25.749Z,5.00
2017-12-01T07:31:51.920Z,5.10
2017-12-01T07:34:18.803Z,5.00
2017-12-01T07:36:44.974Z,5.00
2017-12-01T07:39:11.161Z,5.10
2017-12-01T07:41:37.350Z,5.00
2017-12-01T07:44:03.536Z,5.10
2017-12-01T07:46:29.696Z,5.10
2017-12-01T07:48:59.261Z,5.10
2017-12-01T07:51:25.612Z,5.10
2017-12-01T07:53:51.796Z,5.10
2017-12-01T07:56:18.727Z,5.10
2017-12-01T07:58:44.894Z,5.10
2017-12-01T08:01:11.801Z,5.10
2017-12-01T08:03:37.960Z,5.10
2017-12-01T08:06:05.153Z,5.10
2017-12-01T08:08:31.317Z,5.10
2017-12-01T08:10:57.481Z,5.10
2017-12-01T08:13:23.664Z,5.10
2017-12-01T08:16:02.336Z,5.20
2017-12-01T08:18:40.912Z,5.20
2017-12-01T08:21:07.071Z,5.20
2017-12-01T08:23:45.774Z,5.20
2017-12-01T08:26:11.940Z,5.30
2017-12-01T08:28:38.120Z,5.20
2017-12-01T08:31:04.301Z,5.20
2017-12-01T08:33:30.452Z,5.20
2017-12-01T08:35:57.355Z,5.20
2017-12-01T08:38:23.522Z,5.20
2017-12-01T08:40:49.697Z,5.20
2017-12-01T08:43:15.857Z,5.20
2017-12-01T08:45:42.885Z,5.20
2017-12-01T08:48:09.044Z,5.10
2017-12-01T08:50:35.261Z,5.10
2017-12-01T08:53:03.261Z,5.20
2017-12-01T08:55:29.424Z,5.20
2017-12-01T08:57:56.332Z,5.20
2017-12-01T09:00:22.609Z,5.20
2017-12-01T09:02:49.509Z,5.10
2017-12-01T09:05:15.661Z,5.10
2017-12-01T09:07:41.853Z,5.10
2017-12-01T09:10:09.530Z,5.10
2017-12-01T09:12:36.499Z,5.00
2017-12-01T09:15:02.677Z,5.00
2017-12-01T09:17:29.629Z,5.10
2017-12-01T09:19:55.848Z,5.10
2017-12-01T09:22:22.066Z,5.10
2017-12-01T09:24:48.244Z,5.10
2017-12-01T09:27:15.145Z,5.10
2017-12-01T09:29:41.402Z,5.10
2017-12-01T09:32:07.561Z,5.10
2017-12-01T09:37:37.763Z,5.10
2017-12-01T09:40:22.558Z,5.10
2017-12-01T09:52:11.850Z,5.10
2017-12-01T09:54:38.236Z,5.10
2017-12-01T09:57:04.384Z,5.20
2017-12-01T09:59:30.553Z,5.30
2017-12-01T10:01:56.714Z,5.30
2017-12-01T10:04:22.889Z,5.30
2017-12-01T10:09:48.899Z,5.30
2017-12-01T10:12:15.057Z,5.30
2017-12-01T10:14:41.953Z,5.30
2017-12-01T10:17:08.125Z,5.30
2017-12-01T10:19:34.280Z,5.30
2017-12-01T10:22:00.433Z,5.30
2017-12-01T10:24:26.613Z,5.30
2017-12-01T10:26:55.172Z,5.20
2017-12-01T10:29:21.330Z,5.20
2017-12-01T10:34:52.008Z,5.10
2017-12-01T10:37:18.166Z,5.10
2017-12-01T10:39:44.316Z,5.10
2017-12-01T10:42:10.515Z,5.00
2017-12-01T10:44:36.672Z,5.10
2017-12-01T10:47:02.828Z,5.00
2017-12-01T10:49:29.033Z,5.00
2017-12-01T10:51:55.192Z,5.00
2017-12-01T10:54:29.016Z,5.00
2017-12-01T10:56:55.364Z,5.00
2017-12-01T10:59:21.575Z,5.00
2017-12-01T11:01:47.799Z,5.00
2017-12-01T11:04:13.953Z,5.00
2017-12-01T11:06:40.980Z,4.90
2017-12-01T11:09:07.957Z,4.90
2017-12-01T11:11:34.100Z,4.90
2017-12-01T11:14:00.992Z,5.00
2017-12-01T11:16:27.155Z,5.00
2017-12-01T11:18:53.316Z,5.10
2017-12-01T11:21:20.225Z,5.10
2017-12-01T11:23:46.445Z,5.10
2017-12-01T11:26:12.604Z,5.10
2017-12-01T11:28:38.769Z,5.20
2017-12-01T11:31:05.700Z,5.30
2017-12-01T11:33:31.841Z,5.30
2017-12-01T11:35:58.001Z,5.30
2017-12-01T11:38:24.908Z,5.40
2017-12-01T11:40:51.066Z,5.40
2017-12-01T11:43:17.216Z,5.50
2017-12-01T11:45:43.404Z,5.50
2017-12-01T11:48:09.589Z,5.50
2017-12-01T11:50:35.764Z,5.60
2017-12-01T11:53:01.932Z,5.60
2017-12-01T11:55:29.813Z,5.60
2017-12-01T11:57:59.695Z,5.60
2017-12-01T12:00:25.915Z,5.60
2017-12-01T12:02:52.927Z,5.60
2017-12-01T12:05:19.814Z,5.80
2017-12-01T12:07:45.993Z,5.80
2017-12-01T12:10:12.888Z,5.90
2017-12-01T12:12:39.041Z,5.90
2017-12-01T12:15:05.212Z,5.90
2017-12-01T12:17:31.368Z,5.90
2017-12-01T13:02:17.895Z,5.70
2017-12-01T13:04:44.056Z,5.80
2017-12-01T13:07:10.967Z,5.80
2017-12-01T13:09:37.136Z,5.80
2017-12-01T13:12:03.321Z,5.80
2017-12-01T13:14:29.487Z,5.80
2017-12-01T13:16:56.393Z,5.90
2017-12-01T13:19:22.554Z,5.90
2017-12-01T13:21:48.757Z,5.90
2017-12-01T13:24:15.018Z,5.90
2017-12-01T13:26:41.188Z,5.90
2017-12-01T13:29:07.348Z,5.90
2017-12-01T13:31:33.521Z,6.00
2017-12-01T13:33:59.676Z,6.00
2017-12-01T13:36:26.568Z,6.00
2017-12-01T13:38:52.753Z,6.00
2017-12-01T13:41:19.660Z,6.00
2017-12-01T13:43:45.839Z,6.00
2017-12-01T13:46:12.777Z,6.00
2017-12-01T13:48:38.935Z,6.10
2017-12-01T13:51:05.839Z,6.10
2017-12-01T13:53:32.029Z,6.10
2017-12-01T13:55:58.204Z,6.10
2017-12-01T13:58:24.368Z,6.10
2017-12-01T14:00:52.201Z,6.10
2017-12-01T14:03:21.788Z,6.10
2017-12-01T14:05:47.984Z,6.10
2017-12-01T14:08:14.189Z,6.10
2017-12-01T14:10:40.372Z,6.10
2017-12-01T14:13:07.293Z,6.10
2017-12-01T14:15:34.090Z,6.10
2017-12-01T14:18:00.426Z,6.10
2017-12-01T14:20:26.581Z,6.10
2017-12-01T14:22:52.769Z,6.10
2017-12-01T14:25:19.696Z,6.10
2017-12-01T14:27:45.872Z,6.10
2017-12-01T14:30:12.071Z,6.10
2017-12-01T14:32:38.976Z,6.20
2017-12-01T14:35:05.142Z,6.20
2017-12-01T14:37:31.337Z,6.20
2017-12-01T14:39:57.497Z,6.20
2017-12-01T14:42:23.689Z,6.20
2017-12-01T14:44:50.009Z,6.30
2017-12-01T14:47:16.900Z,6.30
2017-12-01T14:49:43.101Z,6.30
2017-12-01T14:52:10.190Z,6.30
2017-12-01T14:54:36.369Z,6.30
2017-12-01T14:57:03.271Z,6.20
2017-12-01T14:59:30.317Z,6.20
2017-12-01T15:01:56.578Z,6.20
2017-12-01T15:04:24.194Z,6.10
2017-12-01T15:06:50.388Z,6.20
2017-12-01T15:09:16.588Z,6.20
2017-12-01T15:11:43.744Z,6.20
2017-12-01T15:14:10.746Z,6.10
2017-12-01T15:16:36.948Z,6.10
2017-12-01T15:19:03.133Z,6.20
2017-12-01T15:21:29.340Z,6.20
2017-12-01T15:23:56.252Z,6.10
2017-12-01T15:26:22.413Z,6.10
2017-12-01T15:28:50.192Z,6.10
2017-12-01T15:31:16.378Z,6.10
2017-12-01T15:33:42.553Z,6.20
2017-12-01T15:36:08.725Z,6.20
2017-12-01T15:38:34.905Z,6.20
2017-12-01T15:41:01.121Z,6.20
2017-12-01T15:43:27.330Z,6.10
2017-12-01T15:45:54.320Z,6.10
2017-12-01T15:48:20.496Z,6.10
2017-12-01T15:50:47.472Z,6.20
2017-12-01T15:53:13.654Z,6.10
2017-12-01T15:55:40.638Z,6.20
2017-12-01T15:58:07.570Z,6.20
2017-12-01T16:00:34.554Z,6.20
2017-12-01T16:03:00.733Z,6.20
2017-12-01T16:05:27.977Z,6.20
2017-12-01T16:07:54.120Z,6.20
2017-12-01T16:10:21.064Z,6.20
2017-12-01T16:12:48.209Z,6.20
2017-12-01T16:15:15.339Z,6.20
2017-12-01T16:17:41.523Z,6.30
2017-12-01T16:20:08.561Z,6.20
2017-12-01T16:22:34.768Z,6.20
2017-12-01T16:25:01.233Z,6.20
2017-12-01T16:27:27.445Z,6.20
2017-12-01T16:29:53.628Z,6.20
2017-12-01T16:32:19.821Z,6.20
2017-12-01T16:34:46.017Z,6.20
2017-12-01T16:37:12.904Z,6.20
2017-12-01T16:39:39.095Z,6.20
2017-12-01T16:42:05.298Z,6.20
2017-12-01T16:44:31.554Z,6.20
2017-12-01T16:46:57.719Z,6.10
2017-12-01T16:49:23.921Z,6.10
2017-12-01T16:51:50.824Z,6.20
2017-12-01T16:54:16.989Z,6.10
2017-12-01T16:56:43.161Z,6.20
2017-12-01T16:59:09.329Z,6.20
2017-12-01T17:01:35.516Z,6.20
2017-12-01T17:04:02.443Z,6.20
2017-12-01T17:06:29.874Z,6.10
2017-12-01T17:08:56.045Z,6.20
2017-12-01T17:11:23.869Z,6.20
2017-12-01T17:13:50.044Z,6.20
2017-12-01T17:16:16.951Z,6.20
2017-12-01T17:18:44.014Z,6.20
2017-12-01T17:21:10.172Z,6.20
2017-12-01T17:23:36.320Z,6.30
2017-12-01T17:26:04.157Z,6.20
2017-12-01T17:28:30.338Z,6.20
2017-12-01T17:30:57.273Z,6.20
2017-12-01T17:33:24.214Z,6.20
2017-12-01T17:35:50.431Z,6.20
2017-12-01T17:38:16.588Z,6.10
2017-12-01T17:40:42.759Z,6.10
2017-12-01T17:43:08.961Z,6.10
2017-12-01T17:45:35.860Z,6.00
2017-12-01T17:48:02.041Z,6.00
2017-12-01T17:50:28.207Z,6.00
2017-12-01T17:52:54.394Z,6.00
2017-12-01T17:55:20.574Z,6.00
2017-12-01T17:57:46.724Z,5.90
2017-12-01T18:00:12.881Z,5.90
2017-12-01T18:02:39.076Z,5.90
2017-12-01T18:05:05.236Z,5.90
2017-12-01T18:07:32.546Z,5.90
2017-12-01T18:09:59.457Z,5.90
2017-12-01T18:12:25.629Z,5.90
2017-12-01T18:14:52.608Z,5.90
2017-12-01T18:17:18.800Z,5.90
2017-12-01T18:19:45.086Z,5.90
2017-12-01T18:22:11.260Z,5.90
2017-12-01T18:24:38.226Z,5.90
2017-12-01T18:27:04.416Z,5.90
2017-12-01T18:29:30.600Z,5.90
2017-12-01T18:31:57.524Z,5.90
2017-12-01T18:34:23.733Z,5.90
2017-12-01T18:36:49.913Z,6.00
2017-12-01T18:39:16.832Z,5.90
2017-12-01T18:41:44.489Z,5.80
2017-12-01T18:44:10.713Z,5.90
2017-12-01T18:46:36.948Z,5.90
2017-12-01T18:49:03.179Z,5.80
2017-12-01T18:51:29.377Z,5.80
2017-12-01T18:53:55.564Z,5.90
2017-12-01T18:56:21.748Z,5.80
2017-12-01T18:58:48.646Z,5.80
2017-12-01T19:01:14.823Z,5.80
2017-12-01T19:03:41.003Z,5.80
2017-12-01T19:06:07.168Z,5.80
2017-12-01T19:08:34.301Z,5.80
2017-12-01T19:11:00.485Z,5.80
2017-12-01T19:13:27.417Z,5.80
2017-12-01T19:15:53.664Z,5.80
2017-12-01T19:18:19.788Z,5.80
2017-12-01T19:20:46.702Z,5.70
2017-12-01T19:23:13.045Z,5.70
2017-12-01T19:25:39.246Z,5.70
2017-12-01T19:28:06.314Z,5.70
2017-12-01T19:30:32.666Z,5.70
2017-12-01T19:32:58.827Z,5.70
2017-12-01T19:35:25.013Z,5.70
2017-12-01T19:37:52.124Z,5.70
2017-12-01T19:40:19.068Z,5.70
2017-12-01T19:42:45.984Z,5.60
2017-12-01T19:45:15.719Z,5.60
2017-12-01T19:47:41.928Z,5.60
2017-12-01T19:50:08.203Z,5.60
2017-12-01T19:52:35.175Z,5.60
2017-12-01T19:55:01.541Z,5.60
2017-12-01T19:57:27.800Z,5.60
2017-12-01T20:02:58.777Z,5.70
2017-12-01T20:05:25.720Z,5.60
2017-12-01T20:07:52.840Z,5.60
2017-12-01T20:10:19.992Z,5.60
2017-12-01T20:12:46.248Z,5.60
2017-12-01T20:15:12.597Z,5.60
2017-12-01T20:17:39.656Z,5.60
2017-12-01T20:20:05.899Z,5.60
2017-12-01T20:22:33.511Z,5.60
2017-12-01T20:24:59.780Z,5.60
2017-12-01T20:27:26.097Z,5.60
2017-12-01T20:29:52.291Z,5.60
2017-12-01T20:32:18.597Z,5.60
2017-12-01T20:34:44.910Z,5.60
2017-12-01T20:37:11.164Z,5.60
2017-12-01T20:39:37.396Z,5.40
2017-12-01T20:42:03.746Z,5.60
2017-12-01T20:44:30.699Z,5.50
2017-12-01T20:46:57.754Z,5.50
2017-12-01T20:49:24.688Z,5.50
2017-12-01T20:51:50.900Z,5.40
2017-12-01T20:54:17.105Z,5.50
2017-12-01T20:56:43.282Z,5.50
2017-12-01T21:01:50.057Z,5.50
2017-12-01T21:04:16.271Z,5.50
2017-12-01T21:06:42.480Z,5.50
2017-12-01T21:09:10.322Z,5.50
2017-12-01T21:11:36.854Z,5.50
2017-12-01T21:14:03.033Z,5.50
2017-12-01T21:16:29.204Z,5.50
2017-12-01T21:18:55.377Z,5.50
2017-12-01T21:21:22.301Z,5.50
2017-12-01T21:23:48.506Z,5.40
2017-12-01T21:26:14.860Z,5.50
2017-12-01T21:31:59.824Z,5.50
2017-12-01T21:34:26.001Z,5.50
2017-12-01T21:36:52.187Z,5.50
2017-12-01T21:42:22.953Z,5.50
2017-12-01T21:44:49.860Z,5.40
2017-12-01T21:47:16.053Z,5.40
2017-12-01T21:49:42.264Z,5.40
2017-12-01T21:55:13.350Z,5.30
2017-12-01T21:57:39.631Z,5.30
2017-12-01T22:00:06.483Z,5.30
2017-12-01T22:02:33.542Z,5.30
2017-12-01T22:05:19.145Z,5.30
2017-12-01T22:07:58.480Z,5.30
2017-12-01T22:13:28.940Z,5.40
2017-12-01T22:18:59.203Z,5.40
2017-12-01T22:21:25.456Z,5.40
2017-12-01T22:23:52.372Z,5.50
2017-12-01T22:26:18.638Z,5.50
2017-12-01T22:28:45.568Z,5.50
2017-12-01T22:31:11.722Z,5.50
2017-12-01T22:33:38.016Z,5.60
2017-12-01T22:36:04.161Z,5.60
2017-12-01T22:41:33.860Z,5.60
2017-12-01T22:44:00.012Z,5.60
2017-12-01T22:46:26.340Z,5.70
2017-12-01T22:48:52.579Z,5.70
2017-12-01T22:51:19.593Z,5.70
2017-12-01T22:53:46.713Z,5.70
2017-12-01T22:56:13.645Z,5.70
2017-12-01T22:58:40.010Z,5.70
2017-12-01T23:01:06.293Z,5.70
2017-12-01T23:03:32.541Z,5.70
2017-12-01T23:05:58.712Z,5.70
2017-12-01T23:11:26.371Z,5.80
2017-12-01T23:13:53.477Z,5.70
2017-12-01T23:16:19.764Z,5.70
2017-12-01T23:18:46.797Z,5.70
2017-12-01T23:21:13.824Z,5.70
2017-12-01T23:23:56.676Z,5.70
2017-12-01T23:29:27.929Z,5.80
2017-12-01T23:31:54.088Z,5.70
2017-12-01T23:34:21.019Z,5.70
2017-12-01T23:36:49.570Z,5.70
2017-12-01T23:39:15.739Z,5.70
2017-12-01T23:41:41.929Z,5.70
2017-12-01T23:44:08.483Z,5.60
2017-12-01T23:46:34.637Z,5.50
2017-12-01T23:49:00.789Z,5.50
2017-12-01T23:51:27.088Z,5.50
2017-12-01T23:53:53.284Z,5.50
2017-12-01T23:56:19.477Z,5.50
2017-12-01T23:58:45.689Z,5.50
